Juniper, Georgia
Current Conditions -  °F | °C
As of 1:51 PM on Friday 31 Oct 2014 (Local Time) from KCSG Reporting Station
Few Clouds Few Clouds  
Wind Chill: 67°   Ceiling: Unl
Heat Index: 67°   Visibility: 10mi
Dew Point: 39°   Wind: 7mph
Humidity: 36%   Direction: 300°WNW
Pressure: 29.91"   Gusts: 16mph
Location:  32.585°N, 84.6173°W
Report Text: KCSG 311751Z 30006G14KT 10SM FEW100 19/04 A2991 RMK AO2 SLP125 T01940039 10200 20078 58020
Loading
Personal Weather Stations






























Interactive Weather Map
Tropical Storm Tracking
New forecast layout! Learn more

10-Day Weather Forecast

Advertisements
Track Severe Weather on mobile